sensor_id;sensor_type;location;lat;lon;timestamp;P1;durP1;ratioP1;P2;durP2;ratioP2
38487;SDS011;57384;51.986;4.458;2023-07-22T00:00:10;6.47;;;6.28;;
38487;SDS011;57384;51.986;4.458;2023-07-22T00:02:54;5.78;;;5.57;;
38487;SDS011;57384;51.986;4.458;2023-07-22T00:05:39;6.53;;;6.32;;
38487;SDS011;57384;51.986;4.458;2023-07-22T00:08:23;5.35;;;5.15;;
38487;SDS011;57384;51.986;4.458;2023-07-22T00:11:07;5.53;;;5.22;;
38487;SDS011;57384;51.986;4.458;2023-07-22T00:13:52;7.35;;;7.15;;
38487;SDS011;57384;51.986;4.458;2023-07-22T00:16:36;4.95;;;4.80;;
38487;SDS011;57384;51.986;4.458;2023-07-22T00:19:20;4.93;;;4.72;;
38487;SDS011;57384;51.986;4.458;2023-07-22T00:22:04;5.28;;;4.78;;
38487;SDS011;57384;51.986;4.458;2023-07-22T00:24:51;6.18;;;5.97;;
38487;SDS011;57384;51.986;4.458;2023-07-22T00:30:20;4.75;;;4.55;;
38487;SDS011;57384;51.986;4.458;2023-07-22T00:33:04;4.38;;;4.28;;
38487;SDS011;57384;51.986;4.458;2023-07-22T00:35:48;5.43;;;5.22;;
38487;SDS011;57384;51.986;4.458;2023-07-22T00:38:33;4.93;;;4.72;;
38487;SDS011;57384;51.986;4.458;2023-07-22T00:41:17;5.38;;;5.18;;
38487;SDS011;57384;51.986;4.458;2023-07-22T00:44:01;5.53;;;5.32;;
38487;SDS011;57384;51.986;4.458;2023-07-22T00:46:45;5.10;;;4.90;;
38487;SDS011;57384;51.986;4.458;2023-07-22T00:49:29;5.40;;;5.20;;
38487;SDS011;57384;51.986;4.458;2023-07-22T00:52:14;6.05;;;5.85;;
38487;SDS011;57384;51.986;4.458;2023-07-22T00:54:59;4.63;;;4.47;;
38487;SDS011;57384;51.986;4.458;2023-07-22T00:57:44;5.78;;;5.57;;
38487;SDS011;57384;51.986;4.458;2023-07-22T01:00:28;6.15;;;5.95;;
38487;SDS011;57384;51.986;4.458;2023-07-22T01:03:12;4.72;;;4.57;;
38487;SDS011;57384;51.986;4.458;2023-07-22T01:05:57;5.85;;;5.65;;
38487;SDS011;57384;51.986;4.458;2023-07-22T01:08:44;4.68;;;4.55;;
38487;SDS011;57384;51.986;4.458;2023-07-22T01:11:29;4.70;;;4.55;;
38487;SDS011;57384;51.986;4.458;2023-07-22T01:14:13;5.88;;;5.68;;
38487;SDS011;57384;51.986;4.458;2023-07-22T01:16:57;6.13;;;5.93;;
38487;SDS011;57384;51.986;4.458;2023-07-22T01:19:41;5.70;;;5.50;;
38487;SDS011;57384;51.986;4.458;2023-07-22T01:22:28;3.85;;;3.75;;
38487;SDS011;57384;51.986;4.458;2023-07-22T01:25:13;4.75;;;4.57;;
38487;SDS011;57384;51.986;4.458;2023-07-22T01:27:57;5.45;;;5.25;;
38487;SDS011;57384;51.986;4.458;2023-07-22T01:30:41;5.45;;;5.25;;
38487;SDS011;57384;51.986;4.458;2023-07-22T01:33:26;5.53;;;5.32;;
38487;SDS011;57384;51.986;4.458;2023-07-22T01:36:10;5.07;;;4.88;;
38487;SDS011;57384;51.986;4.458;2023-07-22T01:38:54;5.28;;;5.07;;
38487;SDS011;57384;51.986;4.458;2023-07-22T01:41:38;5.47;;;5.28;;
38487;SDS011;57384;51.986;4.458;2023-07-22T01:44:23;5.72;;;5.53;;
38487;SDS011;57384;51.986;4.458;2023-07-22T01:47:07;6.18;;;5.93;;
38487;SDS011;57384;51.986;4.458;2023-07-22T01:49:52;6.35;;;6.15;;
38487;SDS011;57384;51.986;4.458;2023-07-22T01:52:36;6.45;;;6.25;;
38487;SDS011;57384;51.986;4.458;2023-07-22T01:55:20;5.80;;;5.60;;
38487;SDS011;57384;51.986;4.458;2023-07-22T01:58:05;6.38;;;6.18;;
38487;SDS011;57384;51.986;4.458;2023-07-22T02:00:50;5.78;;;5.57;;
38487;SDS011;57384;51.986;4.458;2023-07-22T02:03:34;5.63;;;5.43;;
38487;SDS011;57384;51.986;4.458;2023-07-22T02:06:18;5.35;;;5.15;;
38487;SDS011;57384;51.986;4.458;2023-07-22T02:09:02;6.05;;;5.85;;
38487;SDS011;57384;51.986;4.458;2023-07-22T02:11:47;5.45;;;5.25;;
38487;SDS011;57384;51.986;4.458;2023-07-22T02:14:31;6.22;;;6.03;;
38487;SDS011;57384;51.986;4.458;2023-07-22T02:17:15;6.82;;;6.43;;
38487;SDS011;57384;51.986;4.458;2023-07-22T02:20:00;5.38;;;5.18;;
38487;SDS011;57384;51.986;4.458;2023-07-22T02:22:45;5.38;;;5.18;;
38487;SDS011;57384;51.986;4.458;2023-07-22T02:25:29;5.50;;;5.30;;
38487;SDS011;57384;51.986;4.458;2023-07-22T02:28:13;6.90;;;6.32;;
38487;SDS011;57384;51.986;4.458;2023-07-22T02:31:00;5.78;;;5.57;;
38487;SDS011;57384;51.986;4.458;2023-07-22T02:33:45;5.25;;;5.05;;
38487;SDS011;57384;51.986;4.458;2023-07-22T02:36:29;5.70;;;5.50;;
38487;SDS011;57384;51.986;4.458;2023-07-22T02:39:14;6.65;;;6.45;;
38487;SDS011;57384;51.986;4.458;2023-07-22T02:41:58;6.15;;;5.95;;
38487;SDS011;57384;51.986;4.458;2023-07-22T02:44:42;7.18;;;6.97;;
38487;SDS011;57384;51.986;4.458;2023-07-22T02:47:26;6.88;;;6.43;;
38487;SDS011;57384;51.986;4.458;2023-07-22T02:50:10;7.78;;;7.57;;
38487;SDS011;57384;51.986;4.458;2023-07-22T02:52:54;6.63;;;6.35;;
38487;SDS011;57384;51.986;4.458;2023-07-22T02:55:38;5.95;;;5.75;;
38487;SDS011;57384;51.986;4.458;2023-07-22T02:58:22;6.28;;;6.07;;
38487;SDS011;57384;51.986;4.458;2023-07-22T03:01:09;6.10;;;5.90;;
38487;SDS011;57384;51.986;4.458;2023-07-22T03:03:53;7.70;;;7.40;;
38487;SDS011;57384;51.986;4.458;2023-07-22T03:06:37;7.60;;;7.35;;
38487;SDS011;57384;51.986;4.458;2023-07-22T03:09:21;5.93;;;5.72;;
38487;SDS011;57384;51.986;4.458;2023-07-22T03:12:06;8.50;;;8.25;;
38487;SDS011;57384;51.986;4.458;2023-07-22T03:14:50;6.70;;;6.50;;
38487;SDS011;57384;51.986;4.458;2023-07-22T03:17:37;7.50;;;7.30;;
38487;SDS011;57384;51.986;4.458;2023-07-22T03:20:22;9.27;;;8.98;;
38487;SDS011;57384;51.986;4.458;2023-07-22T03:23:06;9.23;;;8.93;;
38487;SDS011;57384;51.986;4.458;2023-07-22T03:25:50;8.35;;;8.15;;
38487;SDS011;57384;51.986;4.458;2023-07-22T03:28:35;7.85;;;7.65;;
38487;SDS011;57384;51.986;4.458;2023-07-22T03:31:19;6.93;;;6.72;;
38487;SDS011;57384;51.986;4.458;2023-07-22T03:34:03;8.07;;;7.78;;
38487;SDS011;57384;51.986;4.458;2023-07-22T03:36:47;8.75;;;8.45;;
38487;SDS011;57384;51.986;4.458;2023-07-22T03:39:31;7.50;;;7.30;;
38487;SDS011;57384;51.986;4.458;2023-07-22T03:42:15;6.70;;;6.50;;
38487;SDS011;57384;51.986;4.458;2023-07-22T03:44:59;8.68;;;8.43;;
38487;SDS011;57384;51.986;4.458;2023-07-22T03:47:44;7.90;;;7.60;;
38487;SDS011;57384;51.986;4.458;2023-07-22T03:50:28;8.27;;;8.07;;
38487;SDS011;57384;51.986;4.458;2023-07-22T03:53:15;7.63;;;7.43;;
38487;SDS011;57384;51.986;4.458;2023-07-22T03:55:59;9.50;;;9.20;;
38487;SDS011;57384;51.986;4.458;2023-07-22T03:58:43;8.25;;;8.05;;
38487;SDS011;57384;51.986;4.458;2023-07-22T04:01:27;8.57;;;8.30;;
38487;SDS011;57384;51.986;4.458;2023-07-22T04:04:12;9.55;;;9.25;;
38487;SDS011;57384;51.986;4.458;2023-07-22T04:06:56;10.02;;;9.73;;
38487;SDS011;57384;51.986;4.458;2023-07-22T04:09:40;10.50;;;10.20;;
38487;SDS011;57384;51.986;4.458;2023-07-22T04:12:27;8.15;;;7.90;;
38487;SDS011;57384;51.986;4.458;2023-07-22T04:15:11;9.98;;;9.68;;
38487;SDS011;57384;51.986;4.458;2023-07-22T04:17:55;9.60;;;9.30;;
38487;SDS011;57384;51.986;4.458;2023-07-22T04:20:39;11.20;;;10.77;;
38487;SDS011;57384;51.986;4.458;2023-07-22T04:23:23;9.02;;;8.73;;
38487;SDS011;57384;51.986;4.458;2023-07-22T04:26:07;11.32;;;11.02;;
38487;SDS011;57384;51.986;4.458;2023-07-22T04:28:51;11.50;;;11.20;;
38487;SDS011;57384;51.986;4.458;2023-07-22T04:31:35;10.98;;;10.65;;
38487;SDS011;57384;51.986;4.458;2023-07-22T04:34:19;9.85;;;9.50;;
38487;SDS011;57384;51.986;4.458;2023-07-22T04:37:03;11.15;;;10.68;;
38487;SDS011;57384;51.986;4.458;2023-07-22T04:39:48;8.45;;;8.18;;
38487;SDS011;57384;51.986;4.458;2023-07-22T04:42:33;10.15;;;9.75;;
38487;SDS011;57384;51.986;4.458;2023-07-22T04:45:17;9.50;;;9.20;;
38487;SDS011;57384;51.986;4.458;2023-07-22T04:48:02;12.30;;;11.73;;
38487;SDS011;57384;51.986;4.458;2023-07-22T04:50:46;11.25;;;10.65;;
38487;SDS011;57384;51.986;4.458;2023-07-22T04:53:30;10.57;;;10.27;;
38487;SDS011;57384;51.986;4.458;2023-07-22T04:56:14;11.40;;;11.00;;
38487;SDS011;57384;51.986;4.458;2023-07-22T04:58:59;10.68;;;10.25;;
38487;SDS011;57384;51.986;4.458;2023-07-22T05:01:43;10.52;;;10.13;;
38487;SDS011;57384;51.986;4.458;2023-07-22T05:04:27;10.65;;;10.20;;
38487;SDS011;57384;51.986;4.458;2023-07-22T05:07:11;10.32;;;9.82;;
38487;SDS011;57384;51.986;4.458;2023-07-22T05:09:55;10.20;;;9.90;;
38487;SDS011;57384;51.986;4.458;2023-07-22T05:12:39;11.10;;;10.70;;
38487;SDS011;57384;51.986;4.458;2023-07-22T05:15:24;10.82;;;10.45;;
38487;SDS011;57384;51.986;4.458;2023-07-22T05:18:08;11.73;;;11.25;;
38487;SDS011;57384;51.986;4.458;2023-07-22T05:20:52;10.20;;;9.63;;
38487;SDS011;57384;51.986;4.458;2023-07-22T05:23:36;9.05;;;8.65;;
38487;SDS011;57384;51.986;4.458;2023-07-22T05:26:20;9.95;;;9.55;;
38487;SDS011;57384;51.986;4.458;2023-07-22T05:29:04;11.20;;;10.68;;
38487;SDS011;57384;51.986;4.458;2023-07-22T05:31:48;10.48;;;10.05;;
38487;SDS011;57384;51.986;4.458;2023-07-22T05:34:35;9.98;;;9.38;;
38487;SDS011;57384;51.986;4.458;2023-07-22T05:37:20;8.63;;;8.32;;
38487;SDS011;57384;51.986;4.458;2023-07-22T05:40:04;10.55;;;10.23;;
38487;SDS011;57384;51.986;4.458;2023-07-22T05:42:49;9.23;;;8.93;;
38487;SDS011;57384;51.986;4.458;2023-07-22T05:45:33;9.85;;;9.25;;
38487;SDS011;57384;51.986;4.458;2023-07-22T05:48:17;10.45;;;10.07;;
38487;SDS011;57384;51.986;4.458;2023-07-22T05:51:01;9.23;;;8.93;;
38487;SDS011;57384;51.986;4.458;2023-07-22T05:53:45;10.20;;;9.80;;
38487;SDS011;57384;51.986;4.458;2023-07-22T05:56:29;11.43;;;11.02;;
38487;SDS011;57384;51.986;4.458;2023-07-22T05:59:13;10.05;;;9.70;;
38487;SDS011;57384;51.986;4.458;2023-07-22T06:01:57;9.77;;;9.48;;
38487;SDS011;57384;51.986;4.458;2023-07-22T06:04:41;10.20;;;9.80;;
38487;SDS011;57384;51.986;4.458;2023-07-22T06:07:25;11.57;;;11.07;;
38487;SDS011;57384;51.986;4.458;2023-07-22T06:10:11;10.02;;;9.73;;
38487;SDS011;57384;51.986;4.458;2023-07-22T06:12:55;10.30;;;10.00;;
38487;SDS011;57384;51.986;4.458;2023-07-22T06:15:39;9.57;;;9.27;;
38487;SDS011;57384;51.986;4.458;2023-07-22T06:18:23;8.65;;;8.35;;
38487;SDS011;57384;51.986;4.458;2023-07-22T06:21:07;9.55;;;9.25;;
38487;SDS011;57384;51.986;4.458;2023-07-22T06:23:51;10.98;;;10.40;;
38487;SDS011;57384;51.986;4.458;2023-07-22T06:26:35;11.43;;;11.02;;
38487;SDS011;57384;51.986;4.458;2023-07-22T06:29:20;10.52;;;10.15;;
38487;SDS011;57384;51.986;4.458;2023-07-22T06:32:04;11.65;;;11.15;;
38487;SDS011;57384;51.986;4.458;2023-07-22T06:34:48;11.27;;;10.60;;
38487;SDS011;57384;51.986;4.458;2023-07-22T06:37:33;12.50;;;11.63;;
38487;SDS011;57384;51.986;4.458;2023-07-22T06:40:17;12.07;;;11.25;;
38487;SDS011;57384;51.986;4.458;2023-07-22T06:43:02;12.77;;;12.27;;
38487;SDS011;57384;51.986;4.458;2023-07-22T06:45:46;12.85;;;12.07;;
38487;SDS011;57384;51.986;4.458;2023-07-22T06:48:30;12.68;;;11.57;;
38487;SDS011;57384;51.986;4.458;2023-07-22T06:51:14;11.20;;;10.77;;
38487;SDS011;57384;51.986;4.458;2023-07-22T06:53:58;12.90;;;12.32;;
38487;SDS011;57384;51.986;4.458;2023-07-22T06:56:42;12.18;;;11.55;;
38487;SDS011;57384;51.986;4.458;2023-07-22T06:59:26;12.68;;;12.07;;
38487;SDS011;57384;51.986;4.458;2023-07-22T07:02:10;11.80;;;11.40;;
38487;SDS011;57384;51.986;4.458;2023-07-22T07:04:54;12.43;;;11.82;;
38487;SDS011;57384;51.986;4.458;2023-07-22T07:07:38;11.48;;;11.15;;
38487;SDS011;57384;51.986;4.458;2023-07-22T07:10:22;12.15;;;11.75;;
38487;SDS011;57384;51.986;4.458;2023-07-22T07:13:06;13.45;;;12.95;;
38487;SDS011;57384;51.986;4.458;2023-07-22T07:15:50;12.27;;;11.93;;
38487;SDS011;57384;51.986;4.458;2023-07-22T07:18:34;13.90;;;13.40;;
38487;SDS011;57384;51.986;4.458;2023-07-22T07:21:19;12.57;;;12.18;;
38487;SDS011;57384;51.986;4.458;2023-07-22T07:24:03;12.93;;;12.50;;
38487;SDS011;57384;51.986;4.458;2023-07-22T07:26:47;11.85;;;11.50;;
38487;SDS011;57384;51.986;4.458;2023-07-22T07:29:31;11.70;;;11.38;;
38487;SDS011;57384;51.986;4.458;2023-07-22T07:32:15;11.60;;;11.23;;
38487;SDS011;57384;51.986;4.458;2023-07-22T07:34:59;11.30;;;11.00;;
38487;SDS011;57384;51.986;4.458;2023-07-22T07:37:43;10.95;;;10.60;;
38487;SDS011;57384;51.986;4.458;2023-07-22T07:40:27;10.55;;;10.13;;
38487;SDS011;57384;51.986;4.458;2023-07-22T07:43:11;11.55;;;10.90;;
38487;SDS011;57384;51.986;4.458;2023-07-22T07:46:11;10.73;;;10.32;;
38487;SDS011;57384;51.986;4.458;2023-07-22T07:49:00;9.32;;;8.93;;
38487;SDS011;57384;51.986;4.458;2023-07-22T07:51:45;9.45;;;9.15;;
38487;SDS011;57384;51.986;4.458;2023-07-22T07:54:29;9.43;;;9.02;;
38487;SDS011;57384;51.986;4.458;2023-07-22T07:57:13;8.95;;;8.65;;
38487;SDS011;57384;51.986;4.458;2023-07-22T07:59:57;9.77;;;9.40;;
38487;SDS011;57384;51.986;4.458;2023-07-22T08:02:41;7.57;;;7.38;;
38487;SDS011;57384;51.986;4.458;2023-07-22T08:05:25;8.57;;;8.30;;
38487;SDS011;57384;51.986;4.458;2023-07-22T08:08:09;8.80;;;8.50;;
38487;SDS011;57384;51.986;4.458;2023-07-22T08:10:57;6.78;;;6.57;;
38487;SDS011;57384;51.986;4.458;2023-07-22T08:13:42;7.55;;;7.28;;
38487;SDS011;57384;51.986;4.458;2023-07-22T08:16:27;5.88;;;5.68;;
38487;SDS011;57384;51.986;4.458;2023-07-22T08:19:11;5.50;;;5.30;;
38487;SDS011;57384;51.986;4.458;2023-07-22T08:21:57;6.82;;;6.30;;
38487;SDS011;57384;51.986;4.458;2023-07-22T08:24:41;5.35;;;5.15;;
38487;SDS011;57384;51.986;4.458;2023-07-22T08:27:25;5.80;;;5.60;;
38487;SDS011;57384;51.986;4.458;2023-07-22T08:30:09;6.40;;;6.20;;
38487;SDS011;57384;51.986;4.458;2023-07-22T08:32:53;6.20;;;6.00;;
38487;SDS011;57384;51.986;4.458;2023-07-22T08:35:37;6.78;;;6.57;;
38487;SDS011;57384;51.986;4.458;2023-07-22T08:38:22;8.02;;;7.82;;
38487;SDS011;57384;51.986;4.458;2023-07-22T08:41:06;8.43;;;8.18;;
38487;SDS011;57384;51.986;4.458;2023-07-22T08:43:50;9.07;;;8.77;;
38487;SDS011;57384;51.986;4.458;2023-07-22T08:46:37;10.25;;;9.95;;
38487;SDS011;57384;51.986;4.458;2023-07-22T08:49:25;11.55;;;11.25;;
38487;SDS011;57384;51.986;4.458;2023-07-22T08:52:10;11.85;;;11.52;;
38487;SDS011;57384;51.986;4.458;2023-07-22T08:54:57;13.57;;;13.18;;
38487;SDS011;57384;51.986;4.458;2023-07-22T08:57:42;14.02;;;13.63;;
38487;SDS011;57384;51.986;4.458;2023-07-22T09:00:28;13.23;;;12.82;;
38487;SDS011;57384;51.986;4.458;2023-07-22T09:03:13;12.57;;;12.18;;
38487;SDS011;57384;51.986;4.458;2023-07-22T09:05:57;13.05;;;12.65;;
38487;SDS011;57384;51.986;4.458;2023-07-22T09:08:45;11.68;;;11.35;;
38487;SDS011;57384;51.986;4.458;2023-07-22T09:11:30;9.60;;;9.30;;
38487;SDS011;57384;51.986;4.458;2023-07-22T09:14:16;9.70;;;9.40;;
38487;SDS011;57384;51.986;4.458;2023-07-22T09:17:03;11.68;;;11.38;;
38487;SDS011;57384;51.986;4.458;2023-07-22T09:19:51;9.27;;;8.98;;
38487;SDS011;57384;51.986;4.458;2023-07-22T09:22:36;9.55;;;8.93;;
38487;SDS011;57384;51.986;4.458;2023-07-22T09:25:21;7.90;;;7.70;;
38487;SDS011;57384;51.986;4.458;2023-07-22T09:28:06;8.57;;;8.27;;
38487;SDS011;57384;51.986;4.458;2023-07-22T09:30:51;6.47;;;6.28;;
38487;SDS011;57384;51.986;4.458;2023-07-22T09:33:45;7.40;;;7.20;;
38487;SDS011;57384;51.986;4.458;2023-07-22T09:36:29;6.53;;;6.32;;
38487;SDS011;57384;51.986;4.458;2023-07-22T09:39:15;6.28;;;6.07;;
38487;SDS011;57384;51.986;4.458;2023-07-22T09:42:00;7.75;;;5.50;;
38487;SDS011;57384;51.986;4.458;2023-07-22T09:44:48;5.97;;;5.78;;
38487;SDS011;57384;51.986;4.458;2023-07-22T09:47:42;5.40;;;5.20;;
38487;SDS011;57384;51.986;4.458;2023-07-22T09:50:27;5.50;;;5.30;;
38487;SDS011;57384;51.986;4.458;2023-07-22T09:53:17;5.40;;;5.20;;
38487;SDS011;57384;51.986;4.458;2023-07-22T09:56:07;5.28;;;5.07;;
38487;SDS011;57384;51.986;4.458;2023-07-22T09:58:55;5.20;;;5.00;;
38487;SDS011;57384;51.986;4.458;2023-07-22T10:01:42;4.97;;;4.78;;
38487;SDS011;57384;51.986;4.458;2023-07-22T10:04:30;5.00;;;4.80;;
38487;SDS011;57384;51.986;4.458;2023-07-22T10:07:18;4.32;;;4.22;;
38487;SDS011;57384;51.986;4.458;2023-07-22T10:10:03;5.03;;;4.82;;
38487;SDS011;57384;51.986;4.458;2023-07-22T10:12:50;4.22;;;4.13;;
38487;SDS011;57384;51.986;4.458;2023-07-22T10:15:35;4.60;;;4.50;;
38487;SDS011;57384;51.986;4.458;2023-07-22T10:18:20;4.38;;;4.28;;
38487;SDS011;57384;51.986;4.458;2023-07-22T10:21:07;5.10;;;4.90;;
38487;SDS011;57384;51.986;4.458;2023-07-22T10:23:54;6.07;;;5.88;;
38487;SDS011;57384;51.986;4.458;2023-07-22T10:26:39;4.80;;;4.70;;
38487;SDS011;57384;51.986;4.458;2023-07-22T10:29:24;3.97;;;3.88;;
38487;SDS011;57384;51.986;4.458;2023-07-22T10:32:10;4.72;;;4.63;;
38487;SDS011;57384;51.986;4.458;2023-07-22T10:34:57;4.47;;;4.38;;
38487;SDS011;57384;51.986;4.458;2023-07-22T10:37:42;4.40;;;4.30;;
38487;SDS011;57384;51.986;4.458;2023-07-22T10:40:29;5.03;;;4.82;;
38487;SDS011;57384;51.986;4.458;2023-07-22T10:43:17;5.40;;;5.20;;
38487;SDS011;57384;51.986;4.458;2023-07-22T10:46:06;5.03;;;4.85;;
38487;SDS011;57384;51.986;4.458;2023-07-22T10:48:58;5.05;;;4.85;;
38487;SDS011;57384;51.986;4.458;2023-07-22T10:51:57;5.35;;;5.15;;
38487;SDS011;57384;51.986;4.458;2023-07-22T10:54:41;5.43;;;5.22;;
38487;SDS011;57384;51.986;4.458;2023-07-22T10:57:25;4.25;;;4.13;;
38487;SDS011;57384;51.986;4.458;2023-07-22T11:00:17;5.13;;;4.82;;
38487;SDS011;57384;51.986;4.458;2023-07-22T11:03:09;4.80;;;4.60;;
38487;SDS011;57384;51.986;4.458;2023-07-22T11:05:54;4.82;;;4.63;;
38487;SDS011;57384;51.986;4.458;2023-07-22T11:08:39;4.22;;;4.13;;
38487;SDS011;57384;51.986;4.458;2023-07-22T11:11:39;5.03;;;4.82;;
38487;SDS011;57384;51.986;4.458;2023-07-22T11:14:27;4.38;;;4.28;;
38487;SDS011;57384;51.986;4.458;2023-07-22T11:17:17;4.45;;;4.35;;
38487;SDS011;57384;51.986;4.458;2023-07-22T11:20:10;4.82;;;4.63;;
38487;SDS011;57384;51.986;4.458;2023-07-22T11:22:54;4.53;;;4.43;;
38487;SDS011;57384;51.986;4.458;2023-07-22T11:25:41;5.55;;;5.35;;
38487;SDS011;57384;51.986;4.458;2023-07-22T11:28:25;5.00;;;4.80;;
38487;SDS011;57384;51.986;4.458;2023-07-22T11:31:10;4.63;;;4.53;;
38487;SDS011;57384;51.986;4.458;2023-07-22T11:33:54;4.70;;;4.60;;
38487;SDS011;57384;51.986;4.458;2023-07-22T11:36:38;5.57;;;5.38;;
38487;SDS011;57384;51.986;4.458;2023-07-22T11:39:26;5.20;;;5.00;;
38487;SDS011;57384;51.986;4.458;2023-07-22T11:42:10;5.30;;;5.10;;
38487;SDS011;57384;51.986;4.458;2023-07-22T11:44:55;5.28;;;5.07;;
38487;SDS011;57384;51.986;4.458;2023-07-22T11:47:40;5.05;;;4.85;;
38487;SDS011;57384;51.986;4.458;2023-07-22T11:50:33;6.05;;;5.85;;
38487;SDS011;57384;51.986;4.458;2023-07-22T11:53:18;5.30;;;5.10;;
38487;SDS011;57384;51.986;4.458;2023-07-22T11:56:02;5.00;;;4.80;;
38487;SDS011;57384;51.986;4.458;2023-07-22T11:59:04;5.13;;;4.95;;
38487;SDS011;57384;51.986;4.458;2023-07-22T12:01:49;5.28;;;5.07;;
38487;SDS011;57384;51.986;4.458;2023-07-22T12:04:37;5.03;;;4.85;;
38487;SDS011;57384;51.986;4.458;2023-07-22T12:10:13;5.38;;;5.18;;
38487;SDS011;57384;51.986;4.458;2023-07-22T12:13:00;5.72;;;5.53;;
38487;SDS011;57384;51.986;4.458;2023-07-22T12:15:44;5.28;;;5.07;;
38487;SDS011;57384;51.986;4.458;2023-07-22T12:21:27;4.55;;;4.45;;
38487;SDS011;57384;51.986;4.458;2023-07-22T12:24:13;5.18;;;4.97;;
38487;SDS011;57384;51.986;4.458;2023-07-22T12:29:42;5.53;;;5.32;;
38487;SDS011;57384;51.986;4.458;2023-07-22T12:32:26;4.70;;;4.60;;
38487;SDS011;57384;51.986;4.458;2023-07-22T12:35:10;4.55;;;4.45;;
38487;SDS011;57384;51.986;4.458;2023-07-22T12:37:54;4.57;;;4.47;;
38487;SDS011;57384;51.986;4.458;2023-07-22T12:40:38;5.28;;;5.07;;
38487;SDS011;57384;51.986;4.458;2023-07-22T12:43:22;5.25;;;5.05;;
38487;SDS011;57384;51.986;4.458;2023-07-22T12:46:06;5.13;;;4.93;;
38487;SDS011;57384;51.986;4.458;2023-07-22T12:48:50;4.55;;;4.45;;
38487;SDS011;57384;51.986;4.458;2023-07-22T12:51:34;5.22;;;5.03;;
38487;SDS011;57384;51.986;4.458;2023-07-22T12:54:18;5.60;;;5.40;;
38487;SDS011;57384;51.986;4.458;2023-07-22T12:57:02;4.80;;;4.63;;
38487;SDS011;57384;51.986;4.458;2023-07-22T12:59:47;4.43;;;4.32;;
38487;SDS011;57384;51.986;4.458;2023-07-22T13:02:31;4.95;;;4.78;;
38487;SDS011;57384;51.986;4.458;2023-07-22T13:05:15;4.72;;;4.60;;
38487;SDS011;57384;51.986;4.458;2023-07-22T13:07:59;4.85;;;4.70;;
38487;SDS011;57384;51.986;4.458;2023-07-22T13:10:43;4.60;;;4.50;;
38487;SDS011;57384;51.986;4.458;2023-07-22T13:13:27;4.55;;;4.45;;
38487;SDS011;57384;51.986;4.458;2023-07-22T13:16:11;4.20;;;4.10;;
38487;SDS011;57384;51.986;4.458;2023-07-22T13:18:56;6.25;;;5.57;;
38487;SDS011;57384;51.986;4.458;2023-07-22T13:21:40;4.88;;;4.63;;
38487;SDS011;57384;51.986;4.458;2023-07-22T13:24:24;4.65;;;4.45;;
38487;SDS011;57384;51.986;4.458;2023-07-22T13:27:08;4.72;;;4.63;;
38487;SDS011;57384;51.986;4.458;2023-07-22T13:32:55;4.20;;;4.10;;
38487;SDS011;57384;51.986;4.458;2023-07-22T13:35:39;4.65;;;4.53;;
38487;SDS011;57384;51.986;4.458;2023-07-22T13:38:24;4.00;;;3.90;;
38487;SDS011;57384;51.986;4.458;2023-07-22T13:41:08;4.40;;;4.30;;
38487;SDS011;57384;51.986;4.458;2023-07-22T13:43:52;4.13;;;4.03;;
38487;SDS011;57384;51.986;4.458;2023-07-22T13:46:37;4.25;;;4.15;;
38487;SDS011;57384;51.986;4.458;2023-07-22T13:49:24;5.10;;;4.65;;
38487;SDS011;57384;51.986;4.458;2023-07-22T13:52:08;4.18;;;4.07;;
38487;SDS011;57384;51.986;4.458;2023-07-22T13:54:52;4.57;;;4.47;;
38487;SDS011;57384;51.986;4.458;2023-07-22T13:57:36;4.13;;;4.03;;
38487;SDS011;57384;51.986;4.458;2023-07-22T14:00:20;4.47;;;4.38;;
38487;SDS011;57384;51.986;4.458;2023-07-22T14:03:04;4.60;;;4.47;;
38487;SDS011;57384;51.986;4.458;2023-07-22T14:05:48;4.53;;;4.43;;
38487;SDS011;57384;51.986;4.458;2023-07-22T14:08:32;4.40;;;4.20;;
38487;SDS011;57384;51.986;4.458;2023-07-22T14:11:16;6.18;;;5.88;;
38487;SDS011;57384;51.986;4.458;2023-07-22T14:14:00;5.05;;;4.85;;
38487;SDS011;57384;51.986;4.458;2023-07-22T14:16:44;4.15;;;4.05;;
38487;SDS011;57384;51.986;4.458;2023-07-22T14:19:28;5.07;;;4.88;;
38487;SDS011;57384;51.986;4.458;2023-07-22T14:22:12;5.97;;;5.78;;
38487;SDS011;57384;51.986;4.458;2023-07-22T14:24:56;5.47;;;5.28;;
38487;SDS011;57384;51.986;4.458;2023-07-22T14:27:41;5.30;;;5.10;;
38487;SDS011;57384;51.986;4.458;2023-07-22T14:30:25;5.20;;;5.00;;
38487;SDS011;57384;51.986;4.458;2023-07-22T14:33:09;5.05;;;4.75;;
38487;SDS011;57384;51.986;4.458;2023-07-22T14:35:54;5.07;;;4.88;;
38487;SDS011;57384;51.986;4.458;2023-07-22T14:38:38;4.68;;;4.55;;
38487;SDS011;57384;51.986;4.458;2023-07-22T14:41:22;4.60;;;4.50;;
38487;SDS011;57384;51.986;4.458;2023-07-22T14:44:06;4.35;;;4.25;;
38487;SDS011;57384;51.986;4.458;2023-07-22T14:46:50;4.93;;;4.72;;
38487;SDS011;57384;51.986;4.458;2023-07-22T14:49:34;4.90;;;4.75;;
38487;SDS011;57384;51.986;4.458;2023-07-22T14:52:18;5.60;;;5.40;;
38487;SDS011;57384;51.986;4.458;2023-07-22T14:55:03;4.47;;;4.32;;
38487;SDS011;57384;51.986;4.458;2023-07-22T14:57:47;5.15;;;4.95;;
38487;SDS011;57384;51.986;4.458;2023-07-22T15:00:31;4.93;;;4.75;;
38487;SDS011;57384;51.986;4.458;2023-07-22T15:03:15;5.20;;;5.03;;
38487;SDS011;57384;51.986;4.458;2023-07-22T15:05:59;5.75;;;5.55;;
38487;SDS011;57384;51.986;4.458;2023-07-22T15:08:43;5.35;;;5.15;;
38487;SDS011;57384;51.986;4.458;2023-07-22T15:11:27;6.03;;;5.82;;
38487;SDS011;57384;51.986;4.458;2023-07-22T15:14:11;5.47;;;5.28;;
38487;SDS011;57384;51.986;4.458;2023-07-22T15:16:55;5.68;;;5.47;;
38487;SDS011;57384;51.986;4.458;2023-07-22T15:19:39;6.05;;;5.85;;
38487;SDS011;57384;51.986;4.458;2023-07-22T15:22:23;5.75;;;5.55;;
38487;SDS011;57384;51.986;4.458;2023-07-22T15:25:08;6.15;;;5.95;;
38487;SDS011;57384;51.986;4.458;2023-07-22T15:27:52;5.40;;;5.20;;
38487;SDS011;57384;51.986;4.458;2023-07-22T15:30:36;5.05;;;4.88;;
38487;SDS011;57384;51.986;4.458;2023-07-22T15:33:20;4.90;;;4.75;;
38487;SDS011;57384;51.986;4.458;2023-07-22T15:36:04;5.97;;;5.78;;
38487;SDS011;57384;51.986;4.458;2023-07-22T15:38:50;5.75;;;5.45;;
38487;SDS011;57384;51.986;4.458;2023-07-22T15:41:34;6.47;;;6.07;;
38487;SDS011;57384;51.986;4.458;2023-07-22T15:44:18;18.23;;;5.10;;
38487;SDS011;57384;51.986;4.458;2023-07-22T15:47:02;4.10;;;4.00;;
38487;SDS011;57384;51.986;4.458;2023-07-22T15:49:46;5.65;;;5.45;;
38487;SDS011;57384;51.986;4.458;2023-07-22T15:52:30;5.78;;;5.57;;
38487;SDS011;57384;51.986;4.458;2023-07-22T15:55:14;9.00;;;6.32;;
38487;SDS011;57384;51.986;4.458;2023-07-22T15:57:58;5.65;;;5.45;;
38487;SDS011;57384;51.986;4.458;2023-07-22T16:00:43;5.40;;;5.20;;
38487;SDS011;57384;51.986;4.458;2023-07-22T16:03:27;5.57;;;5.38;;
38487;SDS011;57384;51.986;4.458;2023-07-22T16:06:11;6.35;;;6.15;;
38487;SDS011;57384;51.986;4.458;2023-07-22T16:08:55;5.38;;;5.18;;
38487;SDS011;57384;51.986;4.458;2023-07-22T16:11:39;5.85;;;5.65;;
38487;SDS011;57384;51.986;4.458;2023-07-22T16:14:23;5.75;;;5.55;;
38487;SDS011;57384;51.986;4.458;2023-07-22T16:17:08;5.97;;;5.78;;
38487;SDS011;57384;51.986;4.458;2023-07-22T16:19:52;6.50;;;6.30;;
38487;SDS011;57384;51.986;4.458;2023-07-22T16:22:36;6.13;;;5.93;;
38487;SDS011;57384;51.986;4.458;2023-07-22T16:25:20;6.28;;;6.07;;
38487;SDS011;57384;51.986;4.458;2023-07-22T16:28:04;5.97;;;5.78;;
38487;SDS011;57384;51.986;4.458;2023-07-22T16:30:48;5.70;;;5.50;;
38487;SDS011;57384;51.986;4.458;2023-07-22T16:33:32;5.82;;;5.63;;
38487;SDS011;57384;51.986;4.458;2023-07-22T16:36:16;5.97;;;5.78;;
38487;SDS011;57384;51.986;4.458;2023-07-22T16:39:00;5.20;;;5.00;;
38487;SDS011;57384;51.986;4.458;2023-07-22T16:41:44;6.70;;;6.50;;